sensor_id;sensor_type;location;lat;lon;timestamp;temperature;humidity
25328;DHT22;13279;51.300;12.394;2023-09-30T00:00:11;16.60;99.90
25328;DHT22;13279;51.300;12.394;2023-09-30T00:02:38;16.60;99.90
25328;DHT22;13279;51.300;12.394;2023-09-30T00:05:07;16.60;99.90
25328;DHT22;13279;51.300;12.394;2023-09-30T00:07:35;16.60;99.90
25328;DHT22;13279;51.300;12.394;2023-09-30T00:10:03;16.70;99.90
25328;DHT22;13279;51.300;12.394;2023-09-30T00:12:32;16.70;99.90
25328;DHT22;13279;51.300;12.394;2023-09-30T00:15:00;16.70;99.90
25328;DHT22;13279;51.300;12.394;2023-09-30T00:17:27;16.60;99.90
25328;DHT22;13279;51.300;12.394;2023-09-30T00:19:55;16.60;99.90
25328;DHT22;13279;51.300;12.394;2023-09-30T00:22:23;16.60;99.90
25328;DHT22;13279;51.300;12.394;2023-09-30T00:24:51;16.60;99.90
25328;DHT22;13279;51.300;12.394;2023-09-30T00:27:18;16.60;99.90
25328;DHT22;13279;51.300;12.394;2023-09-30T00:29:47;16.50;99.90
25328;DHT22;13279;51.300;12.394;2023-09-30T00:32:14;16.50;99.90
25328;DHT22;13279;51.300;12.394;2023-09-30T00:34:42;16.40;99.90
25328;DHT22;13279;51.300;12.394;2023-09-30T00:37:10;16.40;99.90
25328;DHT22;13279;51.300;12.394;2023-09-30T00:39:37;16.50;99.90
25328;DHT22;13279;51.300;12.394;2023-09-30T00:42:05;16.40;99.90
25328;DHT22;13279;51.300;12.394;2023-09-30T00:44:32;16.30;99.90
25328;DHT22;13279;51.300;12.394;2023-09-30T00:47:01;16.30;99.90
25328;DHT22;13279;51.300;12.394;2023-09-30T00:49:29;16.30;99.90
25328;DHT22;13279;51.300;12.394;2023-09-30T00:51:57;16.30;99.90
25328;DHT22;13279;51.300;12.394;2023-09-30T00:54:26;16.20;99.90
25328;DHT22;13279;51.300;12.394;2023-09-30T00:56:55;16.20;99.90
25328;DHT22;13279;51.300;12.394;2023-09-30T00:59:24;16.20;99.90
25328;DHT22;13279;51.300;12.394;2023-09-30T01:01:54;16.20;99.90
25328;DHT22;13279;51.300;12.394;2023-09-30T01:04:27;16.20;99.90
25328;DHT22;13279;51.300;12.394;2023-09-30T01:06:55;16.10;99.90
25328;DHT22;13279;51.300;12.394;2023-09-30T01:09:23;16.10;99.90
25328;DHT22;13279;51.300;12.394;2023-09-30T01:11:51;16.10;99.90
25328;DHT22;13279;51.300;12.394;2023-09-30T01:14:26;16.00;99.90
25328;DHT22;13279;51.300;12.394;2023-09-30T01:16:54;16.00;99.90
25328;DHT22;13279;51.300;12.394;2023-09-30T01:19:22;15.90;99.90
25328;DHT22;13279;51.300;12.394;2023-09-30T01:21:53;15.90;99.90
25328;DHT22;13279;51.300;12.394;2023-09-30T01:24:22;15.80;99.90
25328;DHT22;13279;51.300;12.394;2023-09-30T01:26:50;15.80;99.90
25328;DHT22;13279;51.300;12.394;2023-09-30T01:29:19;15.80;99.90
25328;DHT22;13279;51.300;12.394;2023-09-30T01:31:46;15.80;99.90
25328;DHT22;13279;51.300;12.394;2023-09-30T01:34:16;15.70;99.90
25328;DHT22;13279;51.300;12.394;2023-09-30T01:36:43;15.70;99.90
25328;DHT22;13279;51.300;12.394;2023-09-30T01:39:15;15.70;99.90
25328;DHT22;13279;51.300;12.394;2023-09-30T01:41:42;15.70;99.90
25328;DHT22;13279;51.300;12.394;2023-09-30T01:44:11;15.70;99.90
25328;DHT22;13279;51.300;12.394;2023-09-30T01:46:39;15.70;99.90
25328;DHT22;13279;51.300;12.394;2023-09-30T01:49:06;15.60;99.90
25328;DHT22;13279;51.300;12.394;2023-09-30T01:51:34;15.60;99.90
25328;DHT22;13279;51.300;12.394;2023-09-30T01:54:01;15.60;99.90
25328;DHT22;13279;51.300;12.394;2023-09-30T01:56:32;15.50;99.90
25328;DHT22;13279;51.300;12.394;2023-09-30T01:58:59;15.50;99.90
25328;DHT22;13279;51.300;12.394;2023-09-30T02:01:27;15.40;99.90
25328;DHT22;13279;51.300;12.394;2023-09-30T02:03:54;15.40;99.90
25328;DHT22;13279;51.300;12.394;2023-09-30T02:06:22;15.40;99.90
25328;DHT22;13279;51.300;12.394;2023-09-30T02:08:49;15.30;99.90
25328;DHT22;13279;51.300;12.394;2023-09-30T02:11:17;15.20;99.90
25328;DHT22;13279;51.300;12.394;2023-09-30T02:13:46;15.20;99.90
25328;DHT22;13279;51.300;12.394;2023-09-30T02:16:13;15.10;99.90
25328;DHT22;13279;51.300;12.394;2023-09-30T02:18:43;15.10;99.90
25328;DHT22;13279;51.300;12.394;2023-09-30T02:21:12;15.10;99.90
25328;DHT22;13279;51.300;12.394;2023-09-30T02:23:39;15.10;99.90
25328;DHT22;13279;51.300;12.394;2023-09-30T02:26:07;15.10;99.90
25328;DHT22;13279;51.300;12.394;2023-09-30T02:28:34;15.00;99.90
25328;DHT22;13279;51.300;12.394;2023-09-30T02:31:04;15.00;99.90
25328;DHT22;13279;51.300;12.394;2023-09-30T02:33:33;15.00;99.90
25328;DHT22;13279;51.300;12.394;2023-09-30T02:36:02;14.90;99.90
25328;DHT22;13279;51.300;12.394;2023-09-30T02:38:31;14.90;99.90
25328;DHT22;13279;51.300;12.394;2023-09-30T02:41:01;14.90;99.90
25328;DHT22;13279;51.300;12.394;2023-09-30T02:43:29;14.80;99.90
25328;DHT22;13279;51.300;12.394;2023-09-30T02:45:56;14.80;99.90
25328;DHT22;13279;51.300;12.394;2023-09-30T02:48:25;14.80;99.90
25328;DHT22;13279;51.300;12.394;2023-09-30T02:50:54;14.90;99.90
25328;DHT22;13279;51.300;12.394;2023-09-30T02:53:22;14.90;99.90
25328;DHT22;13279;51.300;12.394;2023-09-30T02:55:51;14.90;99.90
25328;DHT22;13279;51.300;12.394;2023-09-30T02:58:24;14.90;99.90
25328;DHT22;13279;51.300;12.394;2023-09-30T03:00:53;14.90;99.90
25328;DHT22;13279;51.300;12.394;2023-09-30T03:03:30;14.90;99.90
25328;DHT22;13279;51.300;12.394;2023-09-30T03:06:03;14.90;99.90
25328;DHT22;13279;51.300;12.394;2023-09-30T03:08:32;14.90;99.90
25328;DHT22;13279;51.300;12.394;2023-09-30T03:11:01;14.80;99.90
25328;DHT22;13279;51.300;12.394;2023-09-30T03:13:30;14.80;99.90
25328;DHT22;13279;51.300;12.394;2023-09-30T03:15:57;14.80;99.90
25328;DHT22;13279;51.300;12.394;2023-09-30T03:18:26;14.80;99.90
25328;DHT22;13279;51.300;12.394;2023-09-30T03:21:01;14.80;99.90
25328;DHT22;13279;51.300;12.394;2023-09-30T03:23:34;14.70;99.90
25328;DHT22;13279;51.300;12.394;2023-09-30T03:26:02;14.70;99.90
25328;DHT22;13279;51.300;12.394;2023-09-30T03:28:30;14.60;99.90
25328;DHT22;13279;51.300;12.394;2023-09-30T03:30:57;14.50;99.90
25328;DHT22;13279;51.300;12.394;2023-09-30T03:33:26;14.40;99.90
25328;DHT22;13279;51.300;12.394;2023-09-30T03:35:53;14.40;99.90
25328;DHT22;13279;51.300;12.394;2023-09-30T03:38:21;14.30;99.90
25328;DHT22;13279;51.300;12.394;2023-09-30T03:40:48;14.20;99.90
25328;DHT22;13279;51.300;12.394;2023-09-30T03:43:17;14.20;99.90
25328;DHT22;13279;51.300;12.394;2023-09-30T03:45:44;14.10;99.90
25328;DHT22;13279;51.300;12.394;2023-09-30T03:48:12;14.00;99.90
25328;DHT22;13279;51.300;12.394;2023-09-30T03:50:41;14.00;99.90
25328;DHT22;13279;51.300;12.394;2023-09-30T03:53:09;13.90;99.90
25328;DHT22;13279;51.300;12.394;2023-09-30T03:55:37;13.90;99.90
25328;DHT22;13279;51.300;12.394;2023-09-30T03:58:04;13.90;99.90
25328;DHT22;13279;51.300;12.394;2023-09-30T04:00:32;13.80;99.90
25328;DHT22;13279;51.300;12.394;2023-09-30T04:03:02;13.80;99.90
25328;DHT22;13279;51.300;12.394;2023-09-30T04:05:29;13.80;99.90
25328;DHT22;13279;51.300;12.394;2023-09-30T04:08:01;13.80;99.90
25328;DHT22;13279;51.300;12.394;2023-09-30T04:10:29;13.70;99.90
25328;DHT22;13279;51.300;12.394;2023-09-30T04:12:58;13.70;99.90
25328;DHT22;13279;51.300;12.394;2023-09-30T04:15:26;13.60;99.90
25328;DHT22;13279;51.300;12.394;2023-09-30T04:17:53;13.60;99.90
25328;DHT22;13279;51.300;12.394;2023-09-30T04:20:21;13.60;99.90
25328;DHT22;13279;51.300;12.394;2023-09-30T04:22:49;13.60;99.90
25328;DHT22;13279;51.300;12.394;2023-09-30T04:25:18;13.60;99.90
25328;DHT22;13279;51.300;12.394;2023-09-30T04:27:46;13.60;99.90
25328;DHT22;13279;51.300;12.394;2023-09-30T04:30:17;13.50;99.90
25328;DHT22;13279;51.300;12.394;2023-09-30T04:32:50;13.50;99.90
25328;DHT22;13279;51.300;12.394;2023-09-30T04:35:27;13.50;99.90
25328;DHT22;13279;51.300;12.394;2023-09-30T04:38:04;13.50;99.90
25328;DHT22;13279;51.300;12.394;2023-09-30T04:40:36;13.50;99.90
25328;DHT22;13279;51.300;12.394;2023-09-30T04:43:26;13.50;99.90
25328;DHT22;13279;51.300;12.394;2023-09-30T04:45:59;13.40;99.90
25328;DHT22;13279;51.300;12.394;2023-09-30T04:48:35;13.30;99.90
25328;DHT22;13279;51.300;12.394;2023-09-30T04:51:07;13.30;99.90
25328;DHT22;13279;51.300;12.394;2023-09-30T04:53:35;13.40;99.90
25328;DHT22;13279;51.300;12.394;2023-09-30T04:56:07;13.30;99.90
25328;DHT22;13279;51.300;12.394;2023-09-30T04:58:37;13.40;99.90
25328;DHT22;13279;51.300;12.394;2023-09-30T05:01:38;13.40;99.90
25328;DHT22;13279;51.300;12.394;2023-09-30T05:04:06;13.30;99.90
25328;DHT22;13279;51.300;12.394;2023-09-30T05:06:38;13.30;99.90
25328;DHT22;13279;51.300;12.394;2023-09-30T05:09:25;13.30;99.90
25328;DHT22;13279;51.300;12.394;2023-09-30T05:11:56;13.30;99.90
25328;DHT22;13279;51.300;12.394;2023-09-30T05:14:24;13.30;99.90
25328;DHT22;13279;51.300;12.394;2023-09-30T05:17:06;13.30;99.90
25328;DHT22;13279;51.300;12.394;2023-09-30T05:19:34;13.30;99.90
25328;DHT22;13279;51.300;12.394;2023-09-30T05:22:03;13.30;99.90
25328;DHT22;13279;51.300;12.394;2023-09-30T05:24:31;13.30;99.90
25328;DHT22;13279;51.300;12.394;2023-09-30T05:27:00;13.30;99.90
25328;DHT22;13279;51.300;12.394;2023-09-30T05:29:28;13.30;99.90
25328;DHT22;13279;51.300;12.394;2023-09-30T05:31:55;13.40;99.90
25328;DHT22;13279;51.300;12.394;2023-09-30T05:34:23;13.30;99.90
25328;DHT22;13279;51.300;12.394;2023-09-30T05:36:50;13.30;99.90
25328;DHT22;13279;51.300;12.394;2023-09-30T05:39:18;13.30;99.90
25328;DHT22;13279;51.300;12.394;2023-09-30T05:41:45;13.30;99.90
25328;DHT22;13279;51.300;12.394;2023-09-30T05:44:15;13.30;99.90
25328;DHT22;13279;51.300;12.394;2023-09-30T05:46:43;13.20;99.90
25328;DHT22;13279;51.300;12.394;2023-09-30T05:49:13;13.20;99.90
25328;DHT22;13279;51.300;12.394;2023-09-30T05:51:41;13.10;99.90
25328;DHT22;13279;51.300;12.394;2023-09-30T05:54:09;13.10;99.90
25328;DHT22;13279;51.300;12.394;2023-09-30T05:56:37;13.00;99.90
25328;DHT22;13279;51.300;12.394;2023-09-30T05:59:06;13.00;99.90
25328;DHT22;13279;51.300;12.394;2023-09-30T06:01:36;13.00;99.90
25328;DHT22;13279;51.300;12.394;2023-09-30T06:04:04;13.00;99.90
25328;DHT22;13279;51.300;12.394;2023-09-30T06:06:33;13.00;99.90
25328;DHT22;13279;51.300;12.394;2023-09-30T06:09:02;13.00;99.90
25328;DHT22;13279;51.300;12.394;2023-09-30T06:11:32;13.00;99.90
25328;DHT22;13279;51.300;12.394;2023-09-30T06:14:00;13.00;99.90
25328;DHT22;13279;51.300;12.394;2023-09-30T06:16:27;13.00;99.90
25328;DHT22;13279;51.300;12.394;2023-09-30T06:18:59;13.00;99.90
25328;DHT22;13279;51.300;12.394;2023-09-30T06:21:26;13.10;99.90
25328;DHT22;13279;51.300;12.394;2023-09-30T06:23:55;13.10;99.90
25328;DHT22;13279;51.300;12.394;2023-09-30T06:26:22;13.20;99.90
25328;DHT22;13279;51.300;12.394;2023-09-30T06:28:55;13.20;99.90
25328;DHT22;13279;51.300;12.394;2023-09-30T06:31:22;13.30;99.90
25328;DHT22;13279;51.300;12.394;2023-09-30T06:33:50;13.40;99.90
25328;DHT22;13279;51.300;12.394;2023-09-30T06:36:19;13.40;99.90
25328;DHT22;13279;51.300;12.394;2023-09-30T06:38:47;13.50;99.90
25328;DHT22;13279;51.300;12.394;2023-09-30T06:41:16;13.60;99.90
25328;DHT22;13279;51.300;12.394;2023-09-30T06:43:44;13.70;99.90
25328;DHT22;13279;51.300;12.394;2023-09-30T06:46:12;13.80;99.90
25328;DHT22;13279;51.300;12.394;2023-09-30T06:48:40;13.90;99.90
25328;DHT22;13279;51.300;12.394;2023-09-30T06:51:07;13.90;99.90
25328;DHT22;13279;51.300;12.394;2023-09-30T06:53:41;14.00;99.90
25328;DHT22;13279;51.300;12.394;2023-09-30T06:56:08;14.00;99.90
25328;DHT22;13279;51.300;12.394;2023-09-30T06:58:36;14.00;99.90
25328;DHT22;13279;51.300;12.394;2023-09-30T07:01:03;14.00;99.90
25328;DHT22;13279;51.300;12.394;2023-09-30T07:03:30;14.00;99.90
25328;DHT22;13279;51.300;12.394;2023-09-30T07:05:58;14.00;99.90
25328;DHT22;13279;51.300;12.394;2023-09-30T07:08:28;14.10;99.90
25328;DHT22;13279;51.300;12.394;2023-09-30T07:10:58;14.10;99.90
25328;DHT22;13279;51.300;12.394;2023-09-30T07:13:26;14.20;99.90
25328;DHT22;13279;51.300;12.394;2023-09-30T07:15:53;14.20;99.90
25328;DHT22;13279;51.300;12.394;2023-09-30T07:18:21;14.20;99.90
25328;DHT22;13279;51.300;12.394;2023-09-30T07:20:50;14.20;99.90
25328;DHT22;13279;51.300;12.394;2023-09-30T07:23:19;14.20;99.90
25328;DHT22;13279;51.300;12.394;2023-09-30T07:25:46;14.20;99.90
25328;DHT22;13279;51.300;12.394;2023-09-30T07:28:15;14.30;99.90
25328;DHT22;13279;51.300;12.394;2023-09-30T07:30:43;14.30;99.90
25328;DHT22;13279;51.300;12.394;2023-09-30T07:33:11;14.30;99.90
25328;DHT22;13279;51.300;12.394;2023-09-30T07:35:38;14.40;99.90
25328;DHT22;13279;51.300;12.394;2023-09-30T07:38:06;14.40;99.90
25328;DHT22;13279;51.300;12.394;2023-09-30T07:40:33;14.50;99.90
25328;DHT22;13279;51.300;12.394;2023-09-30T07:43:01;14.50;99.90
25328;DHT22;13279;51.300;12.394;2023-09-30T07:45:29;14.60;99.90
25328;DHT22;13279;51.300;12.394;2023-09-30T07:47:57;14.60;99.90
25328;DHT22;13279;51.300;12.394;2023-09-30T07:50:25;14.70;99.90
25328;DHT22;13279;51.300;12.394;2023-09-30T07:52:52;14.80;99.90
25328;DHT22;13279;51.300;12.394;2023-09-30T07:55:20;14.90;99.90
25328;DHT22;13279;51.300;12.394;2023-09-30T07:57:47;15.00;69.40
25328;DHT22;13279;51.300;12.394;2023-09-30T08:00:15;15.10;95.00
25328;DHT22;13279;51.300;12.394;2023-09-30T08:02:44;15.10;68.70
25328;DHT22;13279;51.300;12.394;2023-09-30T08:05:12;15.00;84.10
25328;DHT22;13279;51.300;12.394;2023-09-30T08:07:39;15.20;70.30
25328;DHT22;13279;51.300;12.394;2023-09-30T08:10:08;15.20;28.00
25328;DHT22;13279;51.300;12.394;2023-09-30T08:12:39;15.10;47.00
25328;DHT22;13279;51.300;12.394;2023-09-30T08:15:07;15.10;52.40
25328;DHT22;13279;51.300;12.394;2023-09-30T08:17:37;15.20;33.80
25328;DHT22;13279;51.300;12.394;2023-09-30T08:20:08;15.30;43.70
25328;DHT22;13279;51.300;12.394;2023-09-30T08:22:36;15.30;99.90
25328;DHT22;13279;51.300;12.394;2023-09-30T08:25:05;15.30;99.90
25328;DHT22;13279;51.300;12.394;2023-09-30T08:27:33;15.50;99.90
25328;DHT22;13279;51.300;12.394;2023-09-30T08:30:02;15.70;99.90
25328;DHT22;13279;51.300;12.394;2023-09-30T08:32:33;15.90;99.90
25328;DHT22;13279;51.300;12.394;2023-09-30T08:35:01;16.20;99.90
25328;DHT22;13279;51.300;12.394;2023-09-30T08:37:30;16.50;99.90
25328;DHT22;13279;51.300;12.394;2023-09-30T08:39:57;16.80;99.90
25328;DHT22;13279;51.300;12.394;2023-09-30T08:42:26;17.10;99.90
25328;DHT22;13279;51.300;12.394;2023-09-30T08:44:57;17.10;99.90
25328;DHT22;13279;51.300;12.394;2023-09-30T08:47:26;17.30;99.90
25328;DHT22;13279;51.300;12.394;2023-09-30T08:49:55;17.50;99.90
25328;DHT22;13279;51.300;12.394;2023-09-30T08:52:31;17.80;99.90
25328;DHT22;13279;51.300;12.394;2023-09-30T08:54:59;18.00;99.90
25328;DHT22;13279;51.300;12.394;2023-09-30T08:57:28;18.00;99.90
25328;DHT22;13279;51.300;12.394;2023-09-30T08:59:57;18.00;99.90
25328;DHT22;13279;51.300;12.394;2023-09-30T09:02:25;18.10;99.90
25328;DHT22;13279;51.300;12.394;2023-09-30T09:04:53;17.90;99.90
25328;DHT22;13279;51.300;12.394;2023-09-30T09:07:21;18.00;99.90
25328;DHT22;13279;51.300;12.394;2023-09-30T09:10:05;18.30;99.90
25328;DHT22;13279;51.300;12.394;2023-09-30T09:12:34;18.30;99.90
25328;DHT22;13279;51.300;12.394;2023-09-30T09:15:06;18.60;99.90
25328;DHT22;13279;51.300;12.394;2023-09-30T09:17:40;18.90;99.90
25328;DHT22;13279;51.300;12.394;2023-09-30T09:20:11;18.90;99.90
25328;DHT22;13279;51.300;12.394;2023-09-30T09:22:41;18.80;99.90
25328;DHT22;13279;51.300;12.394;2023-09-30T09:25:10;18.60;99.90
25328;DHT22;13279;51.300;12.394;2023-09-30T09:27:38;18.80;99.90
25328;DHT22;13279;51.300;12.394;2023-09-30T09:30:16;18.90;99.90
25328;DHT22;13279;51.300;12.394;2023-09-30T09:33:01;18.60;99.90
25328;DHT22;13279;51.300;12.394;2023-09-30T09:35:30;18.40;99.90
25328;DHT22;13279;51.300;12.394;2023-09-30T09:38:00;18.40;99.90
25328;DHT22;13279;51.300;12.394;2023-09-30T09:40:31;18.70;99.90
25328;DHT22;13279;51.300;12.394;2023-09-30T09:43:00;18.90;99.90
25328;DHT22;13279;51.300;12.394;2023-09-30T09:45:32;19.10;99.90
25328;DHT22;13279;51.300;12.394;2023-09-30T09:48:01;18.80;99.90
25328;DHT22;13279;51.300;12.394;2023-09-30T09:50:31;18.90;99.90
25328;DHT22;13279;51.300;12.394;2023-09-30T09:52:59;19.10;99.90
25328;DHT22;13279;51.300;12.394;2023-09-30T09:55:27;18.80;99.90
25328;DHT22;13279;51.300;12.394;2023-09-30T09:57:58;18.70;99.90
25328;DHT22;13279;51.300;12.394;2023-09-30T10:00:26;18.70;99.90
25328;DHT22;13279;51.300;12.394;2023-09-30T10:02:56;18.60;99.90
25328;DHT22;13279;51.300;12.394;2023-09-30T10:05:24;18.90;99.90
25328;DHT22;13279;51.300;12.394;2023-09-30T10:07:53;19.40;99.90
25328;DHT22;13279;51.300;12.394;2023-09-30T10:10:23;19.60;99.90
25328;DHT22;13279;51.300;12.394;2023-09-30T10:12:51;19.90;99.90
25328;DHT22;13279;51.300;12.394;2023-09-30T10:15:45;20.10;99.90
25328;DHT22;13279;51.300;12.394;2023-09-30T10:18:13;20.30;99.90
25328;DHT22;13279;51.300;12.394;2023-09-30T10:20:42;20.40;99.90
25328;DHT22;13279;51.300;12.394;2023-09-30T10:23:24;20.50;99.90
25328;DHT22;13279;51.300;12.394;2023-09-30T10:25:53;20.20;99.90
25328;DHT22;13279;51.300;12.394;2023-09-30T10:28:35;19.60;99.90
25328;DHT22;13279;51.300;12.394;2023-09-30T10:31:15;19.30;99.90
25328;DHT22;13279;51.300;12.394;2023-09-30T10:34:19;19.30;99.90
25328;DHT22;13279;51.300;12.394;2023-09-30T10:36:48;19.60;99.90
25328;DHT22;13279;51.300;12.394;2023-09-30T10:42:46;20.20;99.90
25328;DHT22;13279;51.300;12.394;2023-09-30T10:45:44;20.20;99.90
25328;DHT22;13279;51.300;12.394;2023-09-30T10:48:36;20.00;99.90
25328;DHT22;13279;51.300;12.394;2023-09-30T10:51:12;19.70;99.90
25328;DHT22;13279;51.300;12.394;2023-09-30T10:53:45;20.00;99.90
25328;DHT22;13279;51.300;12.394;2023-09-30T10:56:15;20.00;99.90
25328;DHT22;13279;51.300;12.394;2023-09-30T10:58:44;20.40;99.90
25328;DHT22;13279;51.300;12.394;2023-09-30T11:01:12;19.90;99.90
25328;DHT22;13279;51.300;12.394;2023-09-30T11:03:43;19.60;99.90
25328;DHT22;13279;51.300;12.394;2023-09-30T11:06:14;19.30;99.90
25328;DHT22;13279;51.300;12.394;2023-09-30T11:08:46;19.10;99.90
25328;DHT22;13279;51.300;12.394;2023-09-30T11:11:17;19.40;99.90
25328;DHT22;13279;51.300;12.394;2023-09-30T11:13:45;19.70;99.90
25328;DHT22;13279;51.300;12.394;2023-09-30T11:16:12;20.20;99.90
25328;DHT22;13279;51.300;12.394;2023-09-30T11:18:41;20.20;99.90
25328;DHT22;13279;51.300;12.394;2023-09-30T11:21:10;20.00;99.90
25328;DHT22;13279;51.300;12.394;2023-09-30T11:23:42;20.10;99.90
25328;DHT22;13279;51.300;12.394;2023-09-30T11:26:11;20.20;99.90
25328;DHT22;13279;51.300;12.394;2023-09-30T11:29:12;20.50;99.90
25328;DHT22;13279;51.300;12.394;2023-09-30T11:31:58;20.70;99.90
25328;DHT22;13279;51.300;12.394;2023-09-30T11:34:41;20.60;99.90
25328;DHT22;13279;51.300;12.394;2023-09-30T11:37:15;20.40;99.90
25328;DHT22;13279;51.300;12.394;2023-09-30T11:40:11;20.50;99.90
25328;DHT22;13279;51.300;12.394;2023-09-30T11:43:08;20.90;99.90
25328;DHT22;13279;51.300;12.394;2023-09-30T11:45:38;20.70;99.90
25328;DHT22;13279;51.300;12.394;2023-09-30T11:48:20;21.00;99.90
25328;DHT22;13279;51.300;12.394;2023-09-30T11:50:53;21.20;99.90
25328;DHT22;13279;51.300;12.394;2023-09-30T11:53:21;20.90;99.90
25328;DHT22;13279;51.300;12.394;2023-09-30T11:55:48;20.90;99.90
25328;DHT22;13279;51.300;12.394;2023-09-30T11:58:16;21.10;99.90
25328;DHT22;13279;51.300;12.394;2023-09-30T12:00:45;21.60;99.90
25328;DHT22;13279;51.300;12.394;2023-09-30T12:03:17;21.50;99.90
25328;DHT22;13279;51.300;12.394;2023-09-30T12:05:45;21.50;99.90
25328;DHT22;13279;51.300;12.394;2023-09-30T12:08:16;21.50;99.90
25328;DHT22;13279;51.300;12.394;2023-09-30T12:10:43;21.80;99.90
25328;DHT22;13279;51.300;12.394;2023-09-30T12:13:12;21.60;99.90
25328;DHT22;13279;51.300;12.394;2023-09-30T12:15:48;21.40;99.90
25328;DHT22;13279;51.300;12.394;2023-09-30T12:18:24;21.40;99.90
25328;DHT22;13279;51.300;12.394;2023-09-30T12:21:22;21.60;99.90
25328;DHT22;13279;51.300;12.394;2023-09-30T12:24:04;21.60;99.90
25328;DHT22;13279;51.300;12.394;2023-09-30T12:26:48;21.80;99.90
25328;DHT22;13279;51.300;12.394;2023-09-30T12:29:38;21.80;99.90
25328;DHT22;13279;51.300;12.394;2023-09-30T12:32:27;21.90;99.90
25328;DHT22;13279;51.300;12.394;2023-09-30T12:35:07;21.80;99.90
25328;DHT22;13279;51.300;12.394;2023-09-30T12:38:17;22.20;99.90
25328;DHT22;13279;51.300;12.394;2023-09-30T12:40:59;22.40;99.90
25328;DHT22;13279;51.300;12.394;2023-09-30T12:43:41;22.20;99.90
25328;DHT22;13279;51.300;12.394;2023-09-30T12:46:47;22.10;99.90
25328;DHT22;13279;51.300;12.394;2023-09-30T12:49:40;22.10;99.90
25328;DHT22;13279;51.300;12.394;2023-09-30T12:52:39;22.10;99.90
25328;DHT22;13279;51.300;12.394;2023-09-30T12:55:31;22.40;99.90
25328;DHT22;13279;51.300;12.394;2023-09-30T12:58:33;22.30;99.90
25328;DHT22;13279;51.300;12.394;2023-09-30T13:01:34;22.20;99.90
25328;DHT22;13279;51.300;12.394;2023-09-30T13:04:09;22.60;99.90
25328;DHT22;13279;51.300;12.394;2023-09-30T13:07:15;22.80;99.90
25328;DHT22;13279;51.300;12.394;2023-09-30T13:09:59;22.90;99.90
25328;DHT22;13279;51.300;12.394;2023-09-30T13:12:42;22.90;99.90
25328;DHT22;13279;51.300;12.394;2023-09-30T13:15:42;22.80;99.90
25328;DHT22;13279;51.300;12.394;2023-09-30T13:18:23;22.80;99.90
25328;DHT22;13279;51.300;12.394;2023-09-30T13:20:56;22.90;99.90
25328;DHT22;13279;51.300;12.394;2023-09-30T13:23:36;22.90;99.90
25328;DHT22;13279;51.300;12.394;2023-09-30T13:26:23;22.90;99.90
25328;DHT22;13279;51.300;12.394;2023-09-30T13:28:59;23.30;99.90
25328;DHT22;13279;51.300;12.394;2023-09-30T13:31:37;23.30;99.90
25328;DHT22;13279;51.300;12.394;2023-09-30T13:34:33;23.80;99.90
25328;DHT22;13279;51.300;12.394;2023-09-30T13:37:36;23.80;99.90
25328;DHT22;13279;51.300;12.394;2023-09-30T13:40:12;23.70;99.90
25328;DHT22;13279;51.300;12.394;2023-09-30T13:42:57;23.90;99.90
25328;DHT22;13279;51.300;12.394;2023-09-30T13:48:21;24.10;99.90
25328;DHT22;13279;51.300;12.394;2023-09-30T13:48:46;23.80;99.90
25328;DHT22;13279;51.300;12.394;2023-09-30T13:51:21;24.00;99.90
25328;DHT22;13279;51.300;12.394;2023-09-30T13:57:23;24.30;99.90
25328;DHT22;13279;51.300;12.394;2023-09-30T14:00:07;24.50;99.90
25328;DHT22;13279;51.300;12.394;2023-09-30T14:05:46;24.70;99.90
25328;DHT22;13279;51.300;12.394;2023-09-30T14:08:14;24.60;99.90
25328;DHT22;13279;51.300;12.394;2023-09-30T14:10:51;24.40;99.90
25328;DHT22;13279;51.300;12.394;2023-09-30T14:13:34;24.30;99.90
25328;DHT22;13279;51.300;12.394;2023-09-30T14:19:59;25.00;99.90
25328;DHT22;13279;51.300;12.394;2023-09-30T14:23:00;25.10;99.90
25328;DHT22;13279;51.300;12.394;2023-09-30T14:26:01;25.10;99.90
25328;DHT22;13279;51.300;12.394;2023-09-30T14:31:44;25.10;99.90
25328;DHT22;13279;51.300;12.394;2023-09-30T14:34:18;25.30;99.90
25328;DHT22;13279;51.300;12.394;2023-09-30T14:37:11;25.30;99.90
25328;DHT22;13279;51.300;12.394;2023-09-30T14:43:08;25.30;99.90
25328;DHT22;13279;51.300;12.394;2023-09-30T14:49:39;24.80;99.90
25328;DHT22;13279;51.300;12.394;2023-09-30T14:52:26;24.90;99.90
25328;DHT22;13279;51.300;12.394;2023-09-30T14:58:49;24.70;99.90
25328;DHT22;13279;51.300;12.394;2023-09-30T15:01:41;24.90;99.90
25328;DHT22;13279;51.300;12.394;2023-09-30T15:07:26;24.60;99.90
25328;DHT22;13279;51.300;12.394;2023-09-30T15:10:10;24.60;99.90
25328;DHT22;13279;51.300;12.394;2023-09-30T15:13:02;24.50;99.90
25328;DHT22;13279;51.300;12.394;2023-09-30T15:16:00;24.20;99.90
25328;DHT22;13279;51.300;12.394;2023-09-30T15:18:29;24.20;99.90
25328;DHT22;13279;51.300;12.394;2023-09-30T15:20:57;24.00;99.90
25328;DHT22;13279;51.300;12.394;2023-09-30T15:24:09;24.00;99.90
25328;DHT22;13279;51.300;12.394;2023-09-30T15:27:18;24.00;99.90
25328;DHT22;13279;51.300;12.394;2023-09-30T15:30:25;23.80;99.90
25328;DHT22;13279;51.300;12.394;2023-09-30T15:33:48;23.70;99.90
25328;DHT22;13279;51.300;12.394;2023-09-30T15:36:27;23.60;99.90
25328;DHT22;13279;51.300;12.394;2023-09-30T15:39:04;23.60;99.90
25328;DHT22;13279;51.300;12.394;2023-09-30T15:41:49;23.70;99.90
25328;DHT22;13279;51.300;12.394;2023-09-30T15:44:45;23.80;99.90
25328;DHT22;13279;51.300;12.394;2023-09-30T15:47:22;23.40;99.90
25328;DHT22;13279;51.300;12.394;2023-09-30T15:49:54;22.90;99.90
25328;DHT22;13279;51.300;12.394;2023-09-30T15:52:22;23.00;99.90
25328;DHT22;13279;51.300;12.394;2023-09-30T15:54:50;22.80;99.90
25328;DHT22;13279;51.300;12.394;2023-09-30T15:57:18;22.80;99.90
25328;DHT22;13279;51.300;12.394;2023-09-30T15:59:45;23.00;99.90
25328;DHT22;13279;51.300;12.394;2023-09-30T16:02:15;23.10;99.90
25328;DHT22;13279;51.300;12.394;2023-09-30T16:04:42;22.90;99.90
25328;DHT22;13279;51.300;12.394;2023-09-30T16:07:11;23.10;99.90
25328;DHT22;13279;51.300;12.394;2023-09-30T16:09:39;23.10;99.90
25328;DHT22;13279;51.300;12.394;2023-09-30T16:12:06;23.00;99.90
25328;DHT22;13279;51.300;12.394;2023-09-30T16:14:34;22.90;99.90
25328;DHT22;13279;51.300;12.394;2023-09-30T16:17:02;22.80;99.90
25328;DHT22;13279;51.300;12.394;2023-09-30T16:19:29;22.50;99.90
25328;DHT22;13279;51.300;12.394;2023-09-30T16:21:56;22.30;99.90